createdAt,value
2019-02-16T00:02:07.207Z,6.10
2019-02-16T00:04:51.835Z,6.13
2019-02-16T00:07:36.695Z,6.70
2019-02-16T00:10:21.660Z,6.87
2019-02-16T00:13:06.217Z,6.27
2019-02-16T00:15:50.938Z,6.90
2019-02-16T00:18:35.803Z,5.67
2019-02-16T00:21:20.518Z,6.43
2019-02-16T00:24:05.124Z,6.03
2019-02-16T00:26:49.549Z,6.00
2019-02-16T00:29:34.017Z,5.97
2019-02-16T00:32:18.671Z,6.53
2019-02-16T00:35:04.333Z,6.33
2019-02-16T00:37:49.278Z,6.37
2019-02-16T00:40:34.442Z,6.03
2019-02-16T00:43:18.975Z,5.83
2019-02-16T00:46:03.648Z,6.17
2019-02-16T00:48:48.247Z,5.43
2019-02-16T00:51:32.788Z,5.93
2019-02-16T00:54:17.317Z,6.03
2019-02-16T00:57:02.009Z,5.67
2019-02-16T00:59:47.098Z,5.40
2019-02-16T01:02:31.839Z,6.57
2019-02-16T01:05:16.697Z,6.33
2019-02-16T01:08:01.109Z,6.37
2019-02-16T01:10:46.047Z,6.93
2019-02-16T01:13:30.799Z,7.10
2019-02-16T01:16:15.477Z,6.90
2019-02-16T01:19:00.108Z,7.10
2019-02-16T01:21:45.015Z,6.77
2019-02-16T01:24:29.977Z,6.70
2019-02-16T01:27:14.873Z,6.90
2019-02-16T01:29:59.251Z,6.90
2019-02-16T01:32:43.753Z,7.43
2019-02-16T01:35:28.317Z,7.13
2019-02-16T01:38:13.367Z,7.43
2019-02-16T01:40:58.229Z,7.30
2019-02-16T01:43:42.737Z,6.77
2019-02-16T01:46:27.403Z,6.93
2019-02-16T01:49:11.869Z,6.90
2019-02-16T01:51:56.819Z,6.57
2019-02-16T01:54:41.881Z,6.50
2019-02-16T01:57:27.036Z,7.03
2019-02-16T02:00:11.918Z,6.63
2019-02-16T02:02:56.697Z,7.07
2019-02-16T02:05:41.469Z,6.70
2019-02-16T02:08:26.023Z,6.43
2019-02-16T02:11:10.618Z,6.83
2019-02-16T02:13:55.083Z,6.50
2019-02-16T02:16:39.743Z,6.27
2019-02-16T02:19:24.432Z,6.90
2019-02-16T02:22:09.098Z,7.13
2019-02-16T02:24:53.666Z,6.83
2019-02-16T02:27:38.415Z,6.70
2019-02-16T02:30:23.072Z,6.53
2019-02-16T02:33:07.903Z,6.67
2019-02-16T02:35:52.472Z,6.63
2019-02-16T02:38:36.906Z,7.17
2019-02-16T02:41:21.482Z,7.83
2019-02-16T02:44:06.431Z,7.00
2019-02-16T02:46:51.086Z,6.70
2019-02-16T02:49:35.616Z,6.43
2019-02-16T02:52:20.793Z,6.87
2019-02-16T02:55:06.962Z,6.57
2019-02-16T02:57:51.950Z,6.00
2019-02-16T03:00:36.864Z,6.07
2019-02-16T03:03:21.871Z,6.53
2019-02-16T03:06:06.561Z,6.30
2019-02-16T03:08:51.372Z,6.80
2019-02-16T03:11:36.513Z,6.40
2019-02-16T03:14:21.582Z,6.33
2019-02-16T03:17:06.156Z,6.30
2019-02-16T03:19:50.723Z,6.50
2019-02-16T03:23:13.888Z,6.40
2019-02-16T03:26:11.617Z,6.40
2019-02-16T03:29:00.404Z,7.53
2019-02-16T03:32:03.637Z,6.37
2019-02-16T03:34:52.345Z,7.07
2019-02-16T03:38:00.492Z,7.03
2019-02-16T03:40:47.641Z,7.13
2019-02-16T03:43:32.442Z,7.37
2019-02-16T03:46:16.889Z,6.60
2019-02-16T03:49:01.383Z,6.83
2019-02-16T03:51:45.998Z,6.37
2019-02-16T03:54:30.364Z,6.57
2019-02-16T03:57:15.123Z,7.63
2019-02-16T03:59:59.686Z,6.53
2019-02-16T04:02:44.647Z,6.57
2019-02-16T04:05:29.790Z,6.23
2019-02-16T04:08:14.247Z,6.80
2019-02-16T04:10:59.009Z,6.57
2019-02-16T04:13:43.967Z,6.70
2019-02-16T04:16:28.786Z,6.40
2019-02-16T04:19:15.638Z,6.17
2019-02-16T04:22:00.337Z,6.27
2019-02-16T04:24:44.756Z,5.40
2019-02-16T04:27:29.126Z,5.07
2019-02-16T04:30:13.811Z,5.87
2019-02-16T04:32:58.463Z,5.60
2019-02-16T04:35:43.000Z,5.43
2019-02-16T04:38:27.639Z,5.43
2019-02-16T04:41:12.668Z,5.73
2019-02-16T04:43:57.116Z,5.33
2019-02-16T04:46:41.855Z,5.47
2019-02-16T04:49:26.355Z,5.47
2019-02-16T04:52:10.872Z,5.03
2019-02-16T04:54:55.786Z,5.40
2019-02-16T04:57:40.328Z,5.27
2019-02-16T05:00:25.025Z,5.27
2019-02-16T05:03:09.761Z,5.37
2019-02-16T05:05:54.967Z,5.10
2019-02-16T05:08:39.335Z,4.97
2019-02-16T05:11:24.328Z,5.23
2019-02-16T05:14:09.011Z,5.60
2019-02-16T05:16:53.824Z,5.40
2019-02-16T05:19:39.598Z,4.97
2019-02-16T05:22:24.400Z,5.50
2019-02-16T05:25:08.978Z,6.10
2019-02-16T05:27:53.414Z,5.40
2019-02-16T05:30:37.942Z,5.50
2019-02-16T05:33:22.417Z,5.80
2019-02-16T05:36:07.048Z,5.80
2019-02-16T05:38:51.457Z,6.20
2019-02-16T05:41:36.371Z,6.40
2019-02-16T05:44:20.846Z,5.77
2019-02-16T05:47:05.573Z,5.23
2019-02-16T05:49:50.066Z,5.60
2019-02-16T05:52:34.713Z,6.03
2019-02-16T05:55:19.227Z,6.10
2019-02-16T05:58:03.834Z,6.23
2019-02-16T06:00:48.382Z,5.90
2019-02-16T06:03:33.091Z,5.60
2019-02-16T06:06:17.826Z,5.40
2019-02-16T06:09:04.014Z,6.07
2019-02-16T06:11:48.732Z,5.63
2019-02-16T06:14:33.276Z,6.67
2019-02-16T06:17:17.878Z,6.00
2019-02-16T06:20:04.271Z,5.57
2019-02-16T06:22:49.036Z,5.93
2019-02-16T06:25:33.551Z,7.00
2019-02-16T06:28:17.984Z,6.83
2019-02-16T06:31:02.766Z,7.23
2019-02-16T06:33:47.546Z,7.17
2019-02-16T06:36:34.126Z,8.87
2019-02-16T06:39:18.791Z,7.03
2019-02-16T06:42:03.627Z,7.27
2019-02-16T06:44:48.522Z,7.33
2019-02-16T06:47:33.306Z,7.10
2019-02-16T06:50:18.175Z,7.70
2019-02-16T06:53:02.927Z,7.23
2019-02-16T06:55:49.115Z,7.43
2019-02-16T06:58:33.849Z,8.03
2019-02-16T07:01:18.522Z,7.73
2019-02-16T07:04:03.225Z,7.50
2019-02-16T07:06:47.812Z,8.20
2019-02-16T07:09:34.692Z,9.00
2019-02-16T07:12:19.531Z,8.73
2019-02-16T07:15:05.462Z,8.07
2019-02-16T07:17:52.069Z,7.50
2019-02-16T07:20:36.852Z,7.33
2019-02-16T07:23:22.766Z,7.23
2019-02-16T07:26:07.764Z,7.10
2019-02-16T07:28:52.532Z,7.17
2019-02-16T07:31:37.099Z,7.73
2019-02-16T07:34:22.006Z,7.70
2019-02-16T07:37:06.872Z,7.30
2019-02-16T07:39:52.443Z,7.07
2019-02-16T07:42:53.653Z,7.43
2019-02-16T07:45:40.297Z,7.43
2019-02-16T07:48:26.944Z,7.13
2019-02-16T07:51:13.541Z,6.97
2019-02-16T07:54:00.231Z,7.07
2019-02-16T07:56:46.878Z,7.13
2019-02-16T07:59:36.119Z,6.90
2019-02-16T08:02:34.311Z,6.63
2019-02-16T08:05:39.085Z,7.73
2019-02-16T08:08:28.101Z,7.33
2019-02-16T08:11:14.466Z,6.60
2019-02-16T08:14:13.266Z,6.37
2019-02-16T08:17:11.736Z,6.37
2019-02-16T08:19:58.212Z,6.47
2019-02-16T08:22:59.471Z,5.67
2019-02-16T08:25:48.445Z,6.03
2019-02-16T08:28:46.967Z,6.20
2019-02-16T08:31:39.100Z,5.50
2019-02-16T08:34:31.246Z,5.17
2019-02-16T08:37:26.917Z,5.10
2019-02-16T08:40:18.932Z,5.10
2019-02-16T08:43:22.022Z,5.57
2019-02-16T08:46:20.183Z,5.43
2019-02-16T08:49:06.731Z,5.60
2019-02-16T08:52:04.886Z,6.20
2019-02-16T08:55:03.537Z,5.37
2019-02-16T08:57:52.935Z,5.60
2019-02-16T09:00:55.627Z,5.43
2019-02-16T09:03:50.779Z,5.37
2019-02-16T09:06:48.927Z,5.00
2019-02-16T09:09:44.587Z,5.47
2019-02-16T09:12:34.080Z,5.73
2019-02-16T09:15:35.285Z,4.93
2019-02-16T09:18:33.520Z,4.60
2019-02-16T09:21:19.846Z,4.90
2019-02-16T09:24:06.277Z,4.50
2019-02-16T09:26:58.440Z,4.70
2019-02-16T09:29:56.803Z,4.83
2019-02-16T09:33:00.303Z,4.90
2019-02-16T09:35:46.756Z,4.10
2019-02-16T09:38:38.980Z,4.27
2019-02-16T09:41:34.005Z,4.30
2019-02-16T09:44:38.330Z,4.07
2019-02-16T09:47:40.910Z,4.00
2019-02-16T09:50:28.244Z,4.47
2019-02-16T09:53:14.953Z,3.97
2019-02-16T09:56:07.356Z,4.03
2019-02-16T09:59:05.902Z,3.93
2019-02-16T10:01:58.386Z,3.50
2019-02-16T10:04:45.427Z,4.60
2019-02-16T10:07:37.682Z,4.57
2019-02-16T10:10:24.287Z,4.17
2019-02-16T10:13:12.563Z,4.07
2019-02-16T10:16:02.355Z,3.57
2019-02-16T10:18:54.827Z,3.70
2019-02-16T10:21:43.899Z,3.80
2019-02-16T10:24:36.106Z,4.03
2019-02-16T10:27:22.865Z,3.87
2019-02-16T10:30:24.673Z,3.80
2019-02-16T10:33:14.352Z,3.67
2019-02-16T10:36:02.492Z,3.80
2019-02-16T10:38:51.480Z,3.60
2019-02-16T10:41:52.939Z,4.33
2019-02-16T10:44:39.817Z,4.10
2019-02-16T10:47:35.215Z,4.10
2019-02-16T10:50:27.811Z,4.20
2019-02-16T10:53:23.131Z,4.50
2019-02-16T10:56:24.498Z,4.30
2019-02-16T10:59:27.953Z,4.28
2019-02-16T11:02:14.788Z,4.22
2019-02-16T11:05:01.510Z,4.20
2019-02-16T11:07:59.700Z,5.00
2019-02-16T11:10:54.832Z,4.92
2019-02-16T11:13:44.131Z,4.70
2019-02-16T11:16:39.397Z,4.67
2019-02-16T11:19:28.513Z,4.65
2019-02-16T11:22:24.316Z,4.53
2019-02-16T11:25:28.060Z,4.87
2019-02-16T11:28:14.832Z,5.60
2019-02-16T11:31:12.961Z,5.28
2019-02-16T11:34:05.228Z,5.47
2019-02-16T11:36:51.826Z,5.45
2019-02-16T11:39:38.453Z,6.12
2019-02-16T11:42:24.891Z,5.78
2019-02-16T11:45:11.672Z,5.75
2019-02-16T11:48:06.584Z,6.40
2019-02-16T11:51:01.887Z,6.47
2019-02-16T11:53:48.315Z,5.92
2019-02-16T11:56:40.702Z,6.50
2019-02-16T11:59:27.160Z,6.67
2019-02-16T12:02:13.835Z,6.95
2019-02-16T12:05:00.634Z,6.08
2019-02-16T12:07:47.106Z,7.33
2019-02-16T12:10:36.538Z,8.20
2019-02-16T12:13:32.212Z,7.90
2019-02-16T12:16:19.051Z,7.80
2019-02-16T12:19:21.947Z,7.67
2019-02-16T12:22:08.558Z,7.83
2019-02-16T12:25:05.020Z,8.90
2019-02-16T12:27:46.390Z,9.98
2019-02-16T12:30:48.423Z,7.90
2019-02-16T12:33:34.942Z,8.73
2019-02-16T12:36:22.076Z,9.35
2019-02-16T12:39:08.900Z,8.70
2019-02-16T12:42:07.601Z,8.80
2019-02-16T12:45:00.317Z,8.10
2019-02-16T12:48:01.870Z,8.93
2019-02-16T12:50:48.469Z,7.97
2019-02-16T12:53:43.876Z,8.28
2019-02-16T12:56:43.023Z,9.05
2019-02-16T12:59:41.202Z,9.13
2019-02-16T13:02:31.011Z,8.40
2019-02-16T13:05:17.660Z,9.00
2019-02-16T13:08:13.057Z,8.70
2019-02-16T13:11:05.667Z,8.65
2019-02-16T13:14:05.585Z,8.03
2019-02-16T13:16:52.163Z,8.88
2019-02-16T13:19:38.765Z,8.50
2019-02-16T13:22:25.236Z,8.08
2019-02-16T13:25:24.221Z,9.60
2019-02-16T13:28:06.013Z,8.33
2019-02-16T13:30:55.326Z,8.63
2019-02-16T13:33:41.567Z,8.85
2019-02-16T13:36:28.152Z,8.20
2019-02-16T13:39:14.884Z,8.33
2019-02-16T13:42:04.249Z,8.90
2019-02-16T13:44:56.533Z,8.55
2019-02-16T13:47:54.992Z,8.43
2019-02-16T13:50:41.370Z,8.63
2019-02-16T13:53:36.945Z,8.75
2019-02-16T13:56:26.115Z,7.92
2019-02-16T13:59:12.488Z,8.35
2019-02-16T14:02:08.306Z,8.83
2019-02-16T14:05:00.458Z,8.50
2019-02-16T14:07:49.491Z,8.30
2019-02-16T14:10:38.690Z,7.55
2019-02-16T14:13:37.456Z,9.33
2019-02-16T14:16:24.390Z,7.95
2019-02-16T14:19:09.242Z,8.38
2019-02-16T14:21:53.782Z,7.65
2019-02-16T14:24:45.951Z,8.43
2019-02-16T14:27:30.950Z,9.25
2019-02-16T14:30:15.662Z,7.97
2019-02-16T14:33:00.658Z,8.70
2019-02-16T14:35:47.296Z,8.78
2019-02-16T14:38:34.278Z,8.28
2019-02-16T14:41:19.372Z,9.88
2019-02-16T14:44:04.012Z,8.50
2019-02-16T14:46:48.697Z,8.70
2019-02-16T14:49:33.691Z,8.65
2019-02-16T14:52:18.696Z,8.70
2019-02-16T14:55:06.315Z,8.25
2019-02-16T14:57:50.940Z,7.60
2019-02-16T15:00:36.040Z,7.83
2019-02-16T15:03:21.147Z,7.60
2019-02-16T15:06:06.098Z,8.33
2019-02-16T15:08:50.897Z,7.80
2019-02-16T15:11:35.504Z,8.25
2019-02-16T15:14:20.673Z,7.80
2019-02-16T15:17:05.900Z,7.95
2019-02-16T15:19:53.952Z,7.87
2019-02-16T15:22:39.420Z,9.00
2019-02-16T15:25:24.418Z,8.75
2019-02-16T15:28:09.686Z,8.20
2019-02-16T15:30:54.627Z,9.00
2019-02-16T15:33:39.358Z,8.80
2019-02-16T15:36:24.440Z,7.92
2019-02-16T15:39:08.945Z,8.20
2019-02-16T15:41:53.550Z,8.58
2019-02-16T15:44:38.704Z,8.20
2019-02-16T15:47:23.211Z,8.70
2019-02-16T15:50:11.247Z,8.70
2019-02-16T15:52:55.804Z,8.05
2019-02-16T15:55:40.484Z,8.68
2019-02-16T15:58:27.460Z,8.58
2019-02-16T16:01:12.189Z,8.08
2019-02-16T16:03:57.436Z,8.50
2019-02-16T16:06:42.380Z,8.73
2019-02-16T16:09:31.952Z,8.25
2019-02-16T16:12:36.699Z,8.50
2019-02-16T16:15:23.232Z,7.97
2019-02-16T16:18:09.735Z,8.63
2019-02-16T16:21:05.364Z,8.23
2019-02-16T16:24:08.539Z,8.13
2019-02-16T16:26:57.714Z,9.10
2019-02-16T16:29:46.696Z,8.10
2019-02-16T16:32:44.780Z,8.13
2019-02-16T16:35:34.561Z,7.60
2019-02-16T16:38:32.774Z,7.93
2019-02-16T16:41:19.361Z,8.13
2019-02-16T16:44:23.986Z,8.30
2019-02-16T16:47:26.656Z,8.03
2019-02-16T16:50:18.789Z,8.60
2019-02-16T16:53:06.931Z,8.43
2019-02-16T16:55:53.667Z,8.67
2019-02-16T16:58:43.149Z,8.43
2019-02-16T17:01:30.267Z,8.43
2019-02-16T17:04:23.056Z,8.70
2019-02-16T17:07:15.288Z,8.40
2019-02-16T17:10:10.473Z,8.17
2019-02-16T17:13:13.551Z,8.13
2019-02-16T17:16:02.917Z,7.77
2019-02-16T17:18:52.568Z,8.77
2019-02-16T17:21:44.913Z,9.17
2019-02-16T17:24:34.564Z,8.97
2019-02-16T17:27:21.870Z,8.83
2019-02-16T17:30:28.129Z,9.53
2019-02-16T17:33:17.081Z,8.60
2019-02-16T17:36:09.745Z,9.33
2019-02-16T17:39:02.719Z,10.43
2019-02-16T17:42:05.363Z,10.47
2019-02-16T17:45:08.072Z,10.77
2019-02-16T17:48:09.609Z,11.03
2019-02-16T17:50:56.752Z,12.47
2019-02-16T17:53:52.300Z,12.73
2019-02-16T17:56:46.830Z,13.13
2019-02-16T17:59:46.627Z,12.60
2019-02-16T18:02:33.274Z,13.43
2019-02-16T18:05:32.088Z,12.87
2019-02-16T18:08:30.556Z,13.73
2019-02-16T18:11:20.088Z,15.10
2019-02-16T18:14:12.239Z,14.23
2019-02-16T18:17:11.269Z,15.23
2019-02-16T18:19:57.873Z,14.70
2019-02-16T18:22:56.016Z,15.47
2019-02-16T18:25:53.775Z,15.30
2019-02-16T18:28:57.654Z,14.80
2019-02-16T18:32:00.650Z,15.90
2019-02-16T18:34:47.075Z,15.67
2019-02-16T18:37:33.625Z,15.80
2019-02-16T18:40:20.423Z,16.10
2019-02-16T18:43:10.048Z,16.37
2019-02-16T18:45:59.661Z,15.37
2019-02-16T18:48:58.347Z,14.67
2019-02-16T18:51:45.412Z,15.37
2019-02-16T18:54:32.331Z,15.23
2019-02-16T18:57:21.771Z,14.93
2019-02-16T19:00:17.499Z,15.27
2019-02-16T19:03:03.869Z,15.60
2019-02-16T19:06:02.863Z,15.57
2019-02-16T19:08:49.703Z,14.77
2019-02-16T19:11:51.607Z,15.47
2019-02-16T19:14:38.706Z,14.77
2019-02-16T19:17:41.278Z,14.53
2019-02-16T19:20:27.749Z,14.30
2019-02-16T19:23:20.230Z,14.67
2019-02-16T19:26:07.026Z,14.77
2019-02-16T19:29:05.393Z,15.03
2019-02-16T19:31:51.980Z,15.50
2019-02-16T19:34:54.915Z,14.87
2019-02-16T19:37:41.826Z,14.60
2019-02-16T19:40:46.711Z,14.60
2019-02-16T19:43:48.515Z,14.97
2019-02-16T19:46:44.006Z,14.97
2019-02-16T19:49:30.715Z,15.57
2019-02-16T19:52:26.635Z,14.73
2019-02-16T19:55:28.668Z,15.57
2019-02-16T19:58:18.586Z,15.20
2019-02-16T20:01:20.525Z,16.13
2019-02-16T20:04:25.814Z,15.97
2019-02-16T20:07:12.595Z,16.40
2019-02-16T20:09:59.602Z,15.97
2019-02-16T20:12:46.667Z,16.37
2019-02-16T20:15:39.289Z,16.13
2019-02-16T20:18:38.270Z,16.37
2019-02-16T20:21:43.020Z,16.03
2019-02-16T20:24:48.083Z,16.17
2019-02-16T20:27:49.480Z,15.33
2019-02-16T20:30:52.404Z,16.03
2019-02-16T20:33:39.122Z,16.10
2019-02-16T20:36:43.628Z,15.53
2019-02-16T20:39:30.645Z,16.17
2019-02-16T20:42:23.275Z,16.37
2019-02-16T20:45:23.002Z,15.70
2019-02-16T20:48:16.173Z,15.50
2019-02-16T20:51:03.285Z,16.37
2019-02-16T20:53:50.259Z,15.73
2019-02-16T20:56:37.009Z,16.77
2019-02-16T20:59:26.174Z,16.57
2019-02-16T21:02:21.386Z,16.27
2019-02-16T21:05:16.660Z,16.87
2019-02-16T21:08:19.945Z,17.17
2019-02-16T21:11:15.838Z,16.00
2019-02-16T21:14:20.467Z,16.27
2019-02-16T21:17:09.631Z,15.87
2019-02-16T21:20:02.590Z,16.07
2019-02-16T21:23:05.694Z,15.77
2019-02-16T21:25:57.900Z,15.63
2019-02-16T21:28:44.772Z,16.77
2019-02-16T21:31:34.210Z,16.13
2019-02-16T21:34:35.433Z,16.23
2019-02-16T21:37:24.612Z,15.40
2019-02-16T21:40:11.740Z,15.00
2019-02-16T21:43:10.050Z,15.60
2019-02-16T21:45:57.198Z,15.60
2019-02-16T21:48:44.116Z,16.03
2019-02-16T21:51:33.276Z,14.60
2019-02-16T21:54:20.217Z,16.00
2019-02-16T21:57:06.806Z,15.23
2019-02-16T21:59:58.975Z,14.30
2019-02-16T22:02:45.911Z,14.80
2019-02-16T22:05:35.800Z,14.97
2019-02-16T22:08:40.459Z,14.90
2019-02-16T22:11:27.663Z,14.77
2019-02-16T22:14:12.888Z,15.17
2019-02-16T22:16:57.736Z,15.37
2019-02-16T22:19:43.177Z,15.23
2019-02-16T22:22:28.097Z,15.40
2019-02-16T22:25:12.728Z,14.73
2019-02-16T22:27:57.332Z,14.07
2019-02-16T22:30:42.840Z,14.77
2019-02-16T22:33:27.633Z,15.70
2019-02-16T22:36:12.707Z,15.17
2019-02-16T22:38:57.772Z,15.00
2019-02-16T22:41:42.860Z,14.70
2019-02-16T22:44:27.807Z,14.83
2019-02-16T22:47:12.983Z,15.30
2019-02-16T22:49:57.742Z,15.30
2019-02-16T22:52:42.579Z,15.50
2019-02-16T22:55:27.708Z,16.57
2019-02-16T22:58:12.571Z,15.30
2019-02-16T23:00:57.121Z,14.93
2019-02-16T23:03:41.818Z,14.93
2019-02-16T23:06:27.054Z,14.83
2019-02-16T23:09:13.902Z,14.57
2019-02-16T23:11:58.701Z,14.50
2019-02-16T23:14:43.796Z,15.60
2019-02-16T23:17:28.681Z,15.37
2019-02-16T23:20:13.788Z,14.57
2019-02-16T23:22:58.939Z,14.67
2019-02-16T23:25:43.942Z,13.80
2019-02-16T23:28:38.375Z,14.57
2019-02-16T23:31:15.635Z,15.10
2019-02-16T23:34:00.931Z,16.00
2019-02-16T23:36:45.527Z,14.93
2019-02-16T23:39:30.167Z,15.67
2019-02-16T23:42:15.271Z,14.83
2019-02-16T23:45:00.163Z,15.60
2019-02-16T23:47:45.629Z,16.07
2019-02-16T23:50:30.379Z,14.70
2019-02-16T23:53:15.084Z,14.23
2019-02-16T23:55:59.735Z,14.07
2019-02-16T23:58:49.235Z,13.70
